Time;durP1;ratioP1;P1;durP2;ratioP2;P2;SDS_P1;SDS_P2;PMS_P1;PMS_P2;Temp;Humidity;BMP_temperature;BMP_pressure;BME280_temperature;BME280_humidity;BME280_pressure;Samples;Min_cycle;Max_cycle;Signal;HPM_P1;HPM_P2
2021/05/21 00:01:40;;;;;;;5.68;2.83;;;12.90;99.90;;;;;;5029593;28;20033;-48
2021/05/21 00:04:05;;;;;;;3.60;3.05;;;12.90;99.90;;;;;;5031074;28;20504;-47
2021/05/21 00:06:31;;;;;;;2.65;2.42;;;13.00;99.90;;;;;;5031026;28;20034;-47
2021/05/21 00:08:57;;;;;;;3.10;2.80;;;12.90;99.90;;;;;;5030616;28;20029;-47
2021/05/21 00:11:22;;;;;;;2.58;2.38;;;12.90;99.90;;;;;;5030795;28;20048;-47
2021/05/21 00:13:48;;;;;;;5.68;2.58;;;12.90;99.90;;;;;;5030957;28;20120;-47
2021/05/21 00:16:13;;;;;;;4.25;2.60;;;12.90;99.90;;;;;;5030488;28;20029;-48
2021/05/21 00:18:39;;;;;;;5.35;2.88;;;12.80;99.90;;;;;;5030362;28;20664;-48
2021/05/21 00:21:05;;;;;;;3.88;2.65;;;12.80;99.90;;;;;;5029505;28;20021;-49
2021/05/21 00:23:30;;;;;;;2.90;2.60;;;12.70;99.90;;;;;;5030760;28;20021;-48
2021/05/21 00:25:56;;;;;;;6.45;2.97;;;12.70;99.90;;;;;;5030404;28;20128;-49
2021/05/21 00:28:21;;;;;;;3.88;2.35;;;12.70;99.90;;;;;;5030277;28;20033;-49
2021/05/21 00:30:47;;;;;;;6.13;3.05;;;12.60;99.90;;;;;;5024602;28;20032;-47
2021/05/21 00:33:12;;;;;;;4.03;2.25;;;12.60;99.90;;;;;;5050516;28;20032;-52
2021/05/21 00:35:38;;;;;;;3.45;2.55;;;12.60;99.90;;;;;;5050394;28;20490;-54
2021/05/21 00:38:05;;;;;;;7.05;2.90;;;12.50;99.90;;;;;;5049973;28;20017;-48
2021/05/21 00:40:30;;;;;;;2.50;2.30;;;12.50;99.90;;;;;;5050493;28;20021;-48
2021/05/21 00:42:56;;;;;;;2.42;2.10;;;12.50;99.90;;;;;;5050593;28;20040;-49
2021/05/21 00:45:22;;;;;;;3.42;2.40;;;12.50;99.90;;;;;;5050150;28;20029;-47
2021/05/21 00:47:47;;;;;;;3.05;2.15;;;12.40;99.90;;;;;;5049722;28;20037;-47
2021/05/21 00:50:13;;;;;;;4.53;2.38;;;12.40;99.90;;;;;;5049520;28;20033;-48
2021/05/21 00:52:42;;;;;;;2.78;2.35;;;12.30;99.90;;;;;;5050253;28;20065;-47
2021/05/21 00:55:08;;;;;;;5.40;2.38;;;12.40;99.90;;;;;;5050181;28;20028;-50
2021/05/21 00:57:35;;;;;;;4.30;2.50;;;12.30;99.90;;;;;;5047156;28;20055;-49
2021/05/21 01:00:00;;;;;;;4.07;2.40;;;12.30;99.90;;;;;;5050102;28;20596;-47
2021/05/21 01:02:26;;;;;;;3.58;2.45;;;12.20;99.90;;;;;;5049945;28;20152;-47
2021/05/21 01:04:51;;;;;;;2.72;2.47;;;12.20;99.90;;;;;;5049947;28;20086;-46
2021/05/21 01:07:17;;;;;;;3.72;2.50;;;12.20;99.90;;;;;;5038067;28;20034;-49
2021/05/21 01:09:43;;;;;;;3.85;2.78;;;12.10;99.90;;;;;;5029998;28;20026;-47
2021/05/21 01:12:08;;;;;;;3.63;2.40;;;12.10;99.90;;;;;;5029781;28;20071;-47
2021/05/21 01:14:34;;;;;;;2.75;2.47;;;12.00;99.90;;;;;;5030132;28;20033;-47
2021/05/21 01:17:00;;;;;;;7.43;3.05;;;12.00;99.90;;;;;;5029966;28;20436;-46
2021/05/21 01:19:25;;;;;;;3.55;2.78;;;11.90;99.90;;;;;;5029312;28;20391;-48
2021/05/21 01:21:51;;;;;;;3.90;2.85;;;11.90;99.90;;;;;;5029766;28;20483;-46
2021/05/21 01:24:18;;;;;;;3.15;2.63;;;11.90;99.90;;;;;;5029895;28;20479;-46
2021/05/21 01:26:46;;;;;;;6.95;3.05;;;11.80;99.90;;;;;;5028999;28;20105;-47
2021/05/21 01:29:12;;;;;;;5.55;2.72;;;11.90;99.90;;;;;;5029175;28;20072;-47
2021/05/21 01:31:43;;;;;;;3.10;2.67;;;11.80;99.90;;;;;;5029775;28;20612;-46
2021/05/21 01:34:09;;;;;;;2.92;2.67;;;11.80;99.90;;;;;;5029872;28;20053;-46
2021/05/21 01:36:35;;;;;;;3.42;2.78;;;11.90;99.90;;;;;;5029693;28;20061;-46
2021/05/21 01:39:10;;;;;;;3.08;2.80;;;11.80;99.90;;;;;;5029128;28;20032;-47
2021/05/21 01:41:37;;;;;;;3.85;2.65;;;11.90;99.90;;;;;;5029136;28;20530;-47
2021/05/21 01:44:04;;;;;;;3.33;2.90;;;11.90;99.90;;;;;;5029384;28;20022;-46
2021/05/21 01:46:30;;;;;;;4.38;2.63;;;11.90;99.90;;;;;;5029456;28;20164;-47
2021/05/21 01:48:56;;;;;;;3.38;2.55;;;11.90;99.90;;;;;;5028945;28;20120;-46
2021/05/21 01:51:22;;;;;;;4.90;2.75;;;11.90;99.90;;;;;;5028853;28;20033;-45
2021/05/21 01:53:47;;;;;;;4.53;3.20;;;11.90;99.90;;;;;;5029311;28;20026;-46
2021/05/21 01:56:13;;;;;;;3.28;2.85;;;11.90;99.90;;;;;;5029234;28;20161;-48
2021/05/21 01:58:38;;;;;;;3.65;3.00;;;11.90;99.90;;;;;;5028994;28;20586;-47
2021/05/21 02:01:04;;;;;;;6.78;2.88;;;11.90;99.90;;;;;;5030906;28;20040;-47
2021/05/21 02:03:31;;;;;;;5.07;3.05;;;11.90;99.90;;;;;;5032763;28;20029;-46
2021/05/21 02:05:57;;;;;;;3.08;2.50;;;11.90;99.90;;;;;;5033471;28;20113;-47
2021/05/21 02:08:27;;;;;;;4.35;2.60;;;11.90;99.90;;;;;;5032778;28;20040;-47
2021/05/21 02:10:56;;;;;;;8.32;3.10;;;12.00;99.90;;;;;;5033250;28;20063;-47
2021/05/21 02:13:23;;;;;;;4.13;2.60;;;12.00;99.90;;;;;;5032906;28;20096;-48
2021/05/21 02:15:48;;;;;;;2.75;2.50;;;12.00;99.90;;;;;;5033038;28;20022;-46
2021/05/21 02:18:14;;;;;;;3.47;2.42;;;12.00;99.90;;;;;;5032146;28;20026;-48
2021/05/21 02:20:40;;;;;;;4.80;2.85;;;12.00;99.90;;;;;;5033058;28;20594;-48
2021/05/21 02:23:06;;;;;;;2.85;2.15;;;12.00;99.90;;;;;;5032585;28;20029;-48
2021/05/21 02:25:31;;;;;;;4.38;2.53;;;12.10;99.90;;;;;;5032640;28;20060;-47
2021/05/21 02:27:57;;;;;;;4.63;2.20;;;12.10;99.90;;;;;;5032086;28;20025;-46
2021/05/21 02:30:23;;;;;;;2.50;2.30;;;12.10;99.90;;;;;;5032013;28;20533;-49
2021/05/21 02:32:49;;;;;;;2.38;1.83;;;12.10;99.90;;;;;;5032650;28;20038;-48
2021/05/21 02:35:15;;;;;;;5.15;2.67;;;12.20;99.90;;;;;;5032733;28;20034;-47
2021/05/21 02:37:41;;;;;;;3.72;2.20;;;12.20;99.90;;;;;;5031975;28;20025;-47
2021/05/21 02:40:08;;;;;;;3.63;2.40;;;12.20;99.90;;;;;;5032765;28;20029;-47
2021/05/21 02:42:34;;;;;;;2.38;2.17;;;12.20;99.90;;;;;;5032695;28;20524;-47
2021/05/21 02:45:00;;;;;;;1.90;1.80;;;12.30;99.90;;;;;;5032813;28;20036;-47
2021/05/21 02:47:25;;;;;;;5.15;2.08;;;12.30;99.90;;;;;;5031796;28;20041;-47
2021/05/21 02:49:51;;;;;;;2.55;2.35;;;12.40;99.90;;;;;;5032068;28;20056;-46
2021/05/21 02:52:17;;;;;;;3.33;2.15;;;12.40;99.90;;;;;;5032141;28;20030;-49
2021/05/21 02:54:42;;;;;;;6.50;2.00;;;12.50;99.90;;;;;;5032384;28;20070;-47
2021/05/21 02:57:08;;;;;;;4.07;1.88;;;12.50;99.90;;;;;;5032242;28;20104;-47
2021/05/21 02:59:33;;;;;;;2.88;1.85;;;12.50;99.90;;;;;;5031669;28;20025;-47
2021/05/21 03:01:59;;;;;;;3.53;2.38;;;12.50;99.90;;;;;;5032438;28;20034;-48
2021/05/21 03:04:24;;;;;;;2.33;1.90;;;12.50;99.90;;;;;;5032237;28;20461;-47
2021/05/21 03:06:50;;;;;;;2.90;2.40;;;12.50;99.90;;;;;;5032219;28;20033;-47
2021/05/21 03:09:16;;;;;;;3.65;2.47;;;12.50;99.90;;;;;;5030054;28;20406;-48
2021/05/21 03:11:42;;;;;;;5.68;2.40;;;12.50;99.90;;;;;;5031712;28;20730;-46
2021/05/21 03:14:07;;;;;;;2.28;1.95;;;12.50;99.90;;;;;;5031287;28;20029;-47
2021/05/21 03:16:33;;;;;;;2.47;1.83;;;12.40;99.90;;;;;;5031703;28;20083;-47
2021/05/21 03:18:59;;;;;;;5.63;1.80;;;12.40;99.90;;;;;;5031438;28;20025;-48
2021/05/21 03:21:25;;;;;;;3.83;2.10;;;12.50;99.90;;;;;;5031788;28;20038;-47
2021/05/21 03:23:50;;;;;;;2.45;1.98;;;12.50;99.90;;;;;;5031871;28;20517;-46
2021/05/21 03:26:16;;;;;;;2.97;2.25;;;12.50;99.90;;;;;;5031707;28;20034;-47
2021/05/21 03:28:41;;;;;;;4.95;2.47;;;12.40;99.90;;;;;;5030842;28;20105;-47
2021/05/21 03:31:10;;;;;;;4.28;2.47;;;12.40;99.90;;;;;;5032005;28;20571;-47
2021/05/21 03:33:35;;;;;;;2.40;2.05;;;12.50;99.90;;;;;;5031435;28;20548;-47
2021/05/21 03:36:02;;;;;;;2.28;2.17;;;12.50;99.90;;;;;;5031149;28;20022;-47
2021/05/21 03:38:28;;;;;;;3.33;1.70;;;12.40;99.90;;;;;;5030346;28;20388;-47
2021/05/21 03:40:54;;;;;;;2.58;1.90;;;12.30;99.90;;;;;;5031333;28;20129;-47
2021/05/21 03:43:19;;;;;;;3.70;2.47;;;12.20;99.90;;;;;;5031178;28;20383;-47
2021/05/21 03:45:45;;;;;;;3.55;2.30;;;12.10;99.90;;;;;;5031463;28;20048;-47
2021/05/21 03:48:12;;;;;;;2.95;2.20;;;12.10;99.90;;;;;;5030512;28;20026;-47
2021/05/21 03:50:38;;;;;;;2.80;2.20;;;12.10;99.90;;;;;;5031146;28;20034;-46
2021/05/21 03:53:04;;;;;;;4.38;1.90;;;12.10;99.90;;;;;;5031311;28;20040;-48
2021/05/21 03:55:30;;;;;;;2.85;2.08;;;12.10;99.90;;;;;;5030790;28;20030;-48
2021/05/21 03:57:56;;;;;;;3.53;2.08;;;12.10;99.90;;;;;;5030453;28;20029;-47
2021/05/21 04:00:22;;;;;;;5.18;2.78;;;12.10;99.90;;;;;;5031233;28;20025;-47
2021/05/21 04:02:50;;;;;;;3.40;2.10;;;12.00;99.90;;;;;;5031102;28;20029;-46
2021/05/21 04:05:16;;;;;;;3.10;2.25;;;12.00;99.90;;;;;;5030921;28;20041;-48
2021/05/21 04:07:42;;;;;;;3.88;2.25;;;12.00;99.90;;;;;;5029973;28;20061;-47
2021/05/21 04:10:08;;;;;;;3.88;2.20;;;12.00;99.90;;;;;;5030985;28;20049;-46
2021/05/21 04:12:34;;;;;;;2.35;2.00;;;12.10;99.90;;;;;;5030541;28;20028;-46
2021/05/21 04:15:00;;;;;;;3.90;2.30;;;12.10;99.90;;;;;;5030833;28;20025;-46
2021/05/21 04:17:25;;;;;;;5.47;2.30;;;12.10;99.90;;;;;;5030253;28;20092;-46
2021/05/21 04:19:52;;;;;;;2.97;2.45;;;12.10;99.90;;;;;;5036191;28;20398;-50
2021/05/21 04:22:17;;;;;;;2.85;1.90;;;12.10;99.90;;;;;;5038928;28;20025;-47
2021/05/21 04:24:44;;;;;;;3.35;2.13;;;12.10;99.90;;;;;;5040013;28;20033;-47
2021/05/21 04:27:10;;;;;;;2.90;1.98;;;12.10;99.90;;;;;;5040388;28;20104;-47
2021/05/21 04:29:36;;;;;;;3.42;2.03;;;12.10;99.90;;;;;;5039364;28;20460;-47
2021/05/21 04:32:03;;;;;;;4.43;2.47;;;12.10;99.90;;;;;;5039276;28;20029;-49
2021/05/21 04:34:29;;;;;;;2.20;2.00;;;12.20;99.90;;;;;;5036524;28;20546;-47
2021/05/21 04:36:56;;;;;;;4.38;2.10;;;12.20;99.90;;;;;;5038666;28;20041;-46
2021/05/21 04:39:21;;;;;;;2.85;2.00;;;12.30;99.90;;;;;;5038656;28;20021;-46
2021/05/21 04:41:48;;;;;;;5.88;2.40;;;12.30;99.90;;;;;;5037395;28;20028;-46
2021/05/21 04:44:15;;;;;;;3.17;2.35;;;12.40;99.90;;;;;;5039515;28;20033;-46
2021/05/21 04:46:40;;;;;;;4.20;2.03;;;12.40;99.90;;;;;;5037544;28;20044;-45
2021/05/21 04:49:06;;;;;;;4.03;1.92;;;12.50;99.90;;;;;;5033894;28;20041;-46
2021/05/21 04:51:31;;;;;;;2.83;2.05;;;12.70;99.90;;;;;;5028692;28;20033;-46
2021/05/21 04:54:01;;;;;;;4.03;2.03;;;12.80;99.90;;;;;;5028959;28;20284;-46
2021/05/21 04:56:27;;;;;;;4.90;2.45;;;12.70;99.90;;;;;;5027013;28;20025;-45
2021/05/21 04:58:52;;;;;;;2.45;2.25;;;12.70;99.90;;;;;;5028078;28;20066;-46
2021/05/21 05:01:18;;;;;;;5.38;2.03;;;12.80;99.90;;;;;;5028646;28;20094;-49
2021/05/21 05:03:45;;;;;;;1.95;1.75;;;12.80;99.90;;;;;;5028497;28;20094;-46
2021/05/21 05:06:11;;;;;;;6.43;1.98;;;12.90;99.90;;;;;;5028647;28;20028;-46
2021/05/21 05:08:37;;;;;;;4.43;2.38;;;12.90;99.90;;;;;;5028131;28;20034;-46
2021/05/21 05:11:03;;;;;;;2.65;1.95;;;12.90;99.90;;;;;;5028805;28;20029;-47
2021/05/21 05:13:28;;;;;;;3.38;1.88;;;12.90;99.90;;;;;;5028437;28;20052;-48
2021/05/21 05:15:54;;;;;;;6.07;1.83;;;12.80;99.90;;;;;;5027611;28;20029;-45
2021/05/21 05:18:19;;;;;;;2.15;1.90;;;12.90;99.90;;;;;;5027888;28;20056;-45
2021/05/21 05:20:46;;;;;;;3.88;2.22;;;12.90;99.90;;;;;;5030901;28;20224;-47
2021/05/21 05:23:12;;;;;;;4.18;2.03;;;13.00;99.90;;;;;;5034051;28;20017;-46
2021/05/21 05:25:42;;;;;;;3.65;2.25;;;13.00;99.90;;;;;;5041344;28;20037;-47
2021/05/21 05:28:08;;;;;;;2.17;1.80;;;13.10;99.90;;;;;;5027838;28;20045;-50
2021/05/21 05:30:34;;;;;;;8.98;1.98;;;13.20;99.90;;;;;;5035019;28;20267;-44
2021/05/21 05:33:00;;;;;;;3.17;2.05;;;13.30;99.90;;;;;;5038979;28;20095;-46
2021/05/21 05:35:25;;;;;;;2.42;1.73;;;13.20;99.90;;;;;;5036820;28;20048;-47
2021/05/21 05:37:51;;;;;;;4.93;2.03;;;13.30;99.90;;;;;;5047554;28;20043;-47
2021/05/21 05:40:16;;;;;;;3.42;1.73;;;13.30;99.90;;;;;;5052604;28;20070;-50
2021/05/21 05:42:42;;;;;;;2.45;1.80;;;13.40;99.90;;;;;;5046339;28;20530;-47
2021/05/21 05:45:08;;;;;;;4.38;1.98;;;13.50;99.90;;;;;;5048161;28;20029;-47
2021/05/21 05:47:34;;;;;;;4.45;1.83;;;13.60;99.90;;;;;;5044437;28;20506;-46
2021/05/21 05:49:59;;;;;;;2.65;1.70;;;13.60;99.90;;;;;;5051890;28;20037;-46
2021/05/21 05:52:25;;;;;;;5.95;1.63;;;13.70;99.90;;;;;;5053651;28;20037;-47
2021/05/21 05:54:51;;;;;;;4.90;2.22;;;13.70;99.90;;;;;;5054868;28;20028;-48
2021/05/21 05:57:17;;;;;;;4.05;2.05;;;13.80;99.90;;;;;;5065381;28;20353;-46
2021/05/21 05:59:43;;;;;;;4.18;1.88;;;13.90;99.90;;;;;;5042061;28;20017;-46
2021/05/21 06:02:08;;;;;;;4.13;1.70;;;14.00;99.90;;;;;;5042516;28;20503;-46
2021/05/21 06:04:35;;;;;;;3.35;1.65;;;14.00;99.90;;;;;;5040165;28;20026;-46
2021/05/21 06:07:00;;;;;;;2.97;1.88;;;14.10;99.90;;;;;;5042388;28;20035;-49
2021/05/21 06:09:27;;;;;;;2.15;1.67;;;14.30;99.90;;;;;;5052139;28;20025;-47
2021/05/21 06:11:54;;;;;;;5.05;1.80;;;14.40;99.90;;;;;;5046751;28;20028;-47
2021/05/21 06:14:19;;;;;;;4.05;1.90;;;14.40;99.90;;;;;;5066435;28;20482;-50
2021/05/21 06:16:46;;;;;;;2.40;1.80;;;14.50;99.90;;;;;;5063387;28;20060;-50
2021/05/21 06:19:11;;;;;;;3.60;1.55;;;14.70;99.90;;;;;;5061252;28;20035;-48
2021/05/21 06:21:37;;;;;;;4.60;2.00;;;14.70;99.90;;;;;;5070748;28;20017;-49
2021/05/21 06:24:03;;;;;;;2.78;1.52;;;14.60;99.90;;;;;;5070990;28;20074;-50
2021/05/21 06:26:32;;;;;;;3.15;1.38;;;14.60;99.90;;;;;;5031587;28;20052;-47
2021/05/21 06:28:58;;;;;;;2.80;1.25;;;14.70;99.90;;;;;;5030209;28;20034;-47
2021/05/21 06:31:24;;;;;;;1.67;1.30;;;14.90;99.90;;;;;;5030846;28;20079;-47
2021/05/21 06:33:50;;;;;;;3.45;1.50;;;15.20;99.90;;;;;;5030816;28;20025;-48
2021/05/21 06:36:15;;;;;;;2.35;1.42;;;15.30;99.90;;;;;;5030582;28;20025;-48
2021/05/21 06:38:42;;;;;;;4.68;1.95;;;15.20;99.90;;;;;;5029638;28;20522;-48
2021/05/21 06:41:08;;;;;;;2.45;1.13;;;15.40;99.90;;;;;;5029164;28;20469;-48
2021/05/21 06:43:34;;;;;;;5.50;1.50;;;15.50;99.90;;;;;;5031867;28;20048;-47
2021/05/21 06:46:01;;;;;;;1.83;1.42;;;15.50;99.70;;;;;;5031173;28;20033;-47
2021/05/21 06:48:32;;;;;;;3.60;1.52;;;15.60;99.30;;;;;;5027518;28;20160;-48
2021/05/21 06:51:00;;;;;;;5.72;1.48;;;15.40;98.60;;;;;;5030298;28;20032;-48
2021/05/21 06:53:26;;;;;;;4.40;1.40;;;15.60;99.20;;;;;;5030780;28;20068;-49
2021/05/21 06:55:53;;;;;;;3.05;1.45;;;15.90;99.20;;;;;;5030266;28;20049;-47
2021/05/21 06:58:19;;;;;;;4.13;1.38;;;16.20;98.60;;;;;;5030043;28;20525;-47
2021/05/21 07:00:50;;;;;;;2.25;1.10;;;16.40;97.80;;;;;;5030773;28;20108;-48
2021/05/21 07:03:17;;;;;;;6.60;1.33;;;16.60;94.70;;;;;;5030441;28;20033;-49
2021/05/21 07:05:43;;;;;;;6.00;2.15;;;16.70;94.80;;;;;;5039777;28;20029;-48
2021/05/21 07:08:11;;;;;;;2.88;1.40;;;16.70;93.70;;;;;;5049526;28;20021;-48
2021/05/21 07:10:38;;;;;;;2.20;1.15;;;16.70;93.40;;;;;;5049887;28;20498;-47
2021/05/21 07:13:08;;;;;;;2.35;1.33;;;16.80;92.90;;;;;;5049748;28;20278;-48
2021/05/21 07:15:33;;;;;;;4.18;1.42;;;16.70;93.10;;;;;;5050193;28;20511;-47
2021/05/21 07:18:00;;;;;;;2.53;1.50;;;16.70;92.30;;;;;;5049523;28;20084;-48
2021/05/21 07:20:26;;;;;;;6.25;1.20;;;17.00;91.30;;;;;;5047851;28;20013;-47
2021/05/21 07:22:51;;;;;;;3.80;1.33;;;17.20;90.50;;;;;;5050062;28;20043;-47
2021/05/21 07:25:17;;;;;;;2.22;1.40;;;17.30;90.50;;;;;;5050204;28;20509;-47
2021/05/21 07:27:42;;;;;;;3.22;1.30;;;17.50;88.70;;;;;;5049340;28;20025;-47
2021/05/21 07:30:08;;;;;;;3.58;1.55;;;17.60;87.30;;;;;;5050435;28;20143;-48
2021/05/21 07:32:34;;;;;;;4.18;1.20;;;17.60;85.30;;;;;;5050230;28;20074;-49
2021/05/21 07:35:00;;;;;;;2.20;1.30;;;17.60;84.70;;;;;;5029847;28;20108;-47
2021/05/21 07:37:26;;;;;;;7.63;1.80;;;17.80;84.90;;;;;;5028758;28;20029;-49
2021/05/21 07:39:51;;;;;;;7.13;1.88;;;18.20;84.00;;;;;;5029321;28;20387;-48
2021/05/21 07:42:17;;;;;;;3.10;1.45;;;18.10;83.50;;;;;;5029193;28;20033;-47
2021/05/21 07:44:42;;;;;;;3.20;1.50;;;18.00;81.60;;;;;;5029416;28;20025;-49
2021/05/21 07:47:08;;;;;;;2.60;1.08;;;17.90;81.90;;;;;;5029268;28;20038;-48
2021/05/21 07:49:33;;;;;;;3.47;1.65;;;18.10;81.90;;;;;;5028583;28;20041;-48
2021/05/21 07:51:59;;;;;;;4.78;1.75;;;18.20;81.10;;;;;;5030118;28;20048;-49
2021/05/21 07:54:25;;;;;;;7.32;1.75;;;18.30;81.30;;;;;;5029998;28;20104;-47
2021/05/21 07:56:50;;;;;;;1.80;1.30;;;18.40;79.50;;;;;;5029517;28;20475;-48
2021/05/21 07:59:16;;;;;;;4.55;1.40;;;18.50;79.90;;;;;;5028954;28;20044;-48
2021/05/21 08:01:42;;;;;;;2.10;1.23;;;18.40;79.50;;;;;;5029579;28;20044;-47
2021/05/21 08:04:08;;;;;;;2.55;1.42;;;18.40;76.70;;;;;;5029648;28;20025;-49
2021/05/21 08:06:34;;;;;;;12.25;7.25;;;18.40;78.60;;;;;;5029852;28;20272;-47
2021/05/21 08:09:04;;;;;;;4.15;1.38;;;18.60;77.60;;;;;;5028888;28;20021;-49
2021/05/21 08:11:30;;;;;;;1.50;1.02;;;18.90;73.70;;;;;;5029215;28;20029;-51
2021/05/21 08:13:55;;;;;;;4.57;1.50;;;18.90;74.30;;;;;;5029794;28;20390;-49
2021/05/21 08:16:21;;;;;;;3.17;1.60;;;19.20;73.70;;;;;;5029583;28;20033;-51
2021/05/21 08:18:46;;;;;;;5.07;1.30;;;19.40;74.40;;;;;;5027734;28;20471;-48
2021/05/21 08:21:12;;;;;;;0.98;0.90;;;19.70;69.80;;;;;;5029487;28;20110;-48
2021/05/21 08:23:37;;;;;;;2.13;1.63;;;20.20;67.60;;;;;;5029659;28;20044;-45
2021/05/21 08:26:06;;;;;;;1.00;0.88;;;19.40;68.70;;;;;;5029389;28;20025;-48
2021/05/21 08:28:31;;;;;;;3.50;1.40;;;19.30;69.70;;;;;;5029081;28;20052;-48
2021/05/21 08:30:57;;;;;;;2.80;1.13;;;19.00;70.40;;;;;;5029064;28;20030;-48
2021/05/21 08:33:22;;;;;;;2.10;0.98;;;19.10;70.00;;;;;;5029127;28;20486;-47
2021/05/21 08:35:48;;;;;;;3.85;1.40;;;20.20;68.40;;;;;;5027948;28;20029;-47
2021/05/21 08:38:14;;;;;;;1.65;0.90;;;21.50;63.30;;;;;;5027324;28;20017;-48
2021/05/21 08:40:40;;;;;;;1.90;1.10;;;22.10;62.00;;;;;;5029325;28;20032;-48
2021/05/21 08:43:10;;;;;;;2.05;1.08;;;22.80;57.20;;;;;;5029113;28;20056;-46
2021/05/21 08:45:38;;;;;;;3.90;1.10;;;23.90;54.70;;;;;;5027822;28;20025;-48
2021/05/21 08:48:04;;;;;;;3.50;1.25;;;22.90;53.40;;;;;;5027983;28;20022;-46
2021/05/21 08:50:30;;;;;;;4.13;1.80;;;22.70;55.30;;;;;;5028680;28;20143;-46
2021/05/21 08:52:56;;;;;;;5.28;1.50;;;22.50;56.20;;;;;;5028711;28;20041;-46
2021/05/21 08:55:22;;;;;;;4.30;1.20;;;23.20;55.00;;;;;;5028837;28;20025;-47
2021/05/21 08:57:48;;;;;;;3.13;1.13;;;24.70;49.60;;;;;;5046725;28;20035;-47
2021/05/21 09:00:14;;;;;;;2.10;1.08;;;25.10;50.40;;;;;;5035100;28;20437;-48
2021/05/21 09:02:40;;;;;;;2.60;1.00;;;26.20;49.40;;;;;;5033440;28;20447;-47
2021/05/21 09:05:08;;;;;;;4.50;1.00;;;26.80;46.50;;;;;;5046056;28;20108;-49
2021/05/21 09:07:35;;;;;;;2.05;1.23;;;27.20;43.80;;;;;;5048037;28;20040;-48
2021/05/21 09:10:13;;;;;;;3.22;1.15;;;27.20;44.90;;;;;;5048223;28;20064;-47
2021/05/21 09:12:43;;;;;;;2.78;1.23;;;26.80;43.10;;;;;;5048486;28;20505;-48
2021/05/21 09:15:25;;;;;;;1.95;0.88;;;27.90;41.30;;;;;;5048621;28;20033;-49
2021/05/21 09:17:57;;;;;;;2.80;1.27;;;28.90;41.00;;;;;;5046725;28;20522;-49
2021/05/21 09:20:28;;;;;;;3.78;1.38;;;28.70;40.30;;;;;;5047501;28;20025;-47
2021/05/21 09:23:09;;;;;;;5.57;1.95;;;28.70;38.60;;;;;;5048642;28;20047;-47
2021/05/21 09:25:48;;;;;;;3.97;1.38;;;27.90;39.30;;;;;;5048649;28;20029;-50
2021/05/21 09:28:39;;;;;;;4.00;1.60;;;28.40;38.70;;;;;;5047610;28;20461;-48
2021/05/21 09:31:08;;;;;;;3.60;1.15;;;28.70;37.30;;;;;;5048262;28;20260;-47
2021/05/21 09:33:35;;;;;;;4.97;1.13;;;28.40;40.50;;;;;;5044178;28;20061;-49
2021/05/21 09:36:02;;;;;;;6.00;1.15;;;28.90;39.00;;;;;;5028729;28;20018;-51
2021/05/21 09:38:50;;;;;;;7.72;1.70;;;28.50;38.30;;;;;;5028039;28;20044;-49
2021/05/21 09:41:16;;;;;;;3.35;1.27;;;26.60;39.70;;;;;;5028475;28;20116;-50
2021/05/21 09:43:41;;;;;;;7.22;1.20;;;26.40;42.40;;;;;;5028449;28;20164;-48
2021/05/21 09:46:08;;;;;;;7.22;1.67;;;26.10;40.20;;;;;;5028214;28;20037;-48
2021/05/21 09:48:34;;;;;;;6.82;1.55;;;25.60;40.80;;;;;;5027377;28;20028;-48
2021/05/21 09:51:00;;;;;;;6.72;1.77;;;23.90;44.20;;;;;;5028318;28;20032;-50
2021/05/21 09:53:25;;;;;;;4.03;1.65;;;23.10;46.00;;;;;;5028222;28;20033;-50
2021/05/21 09:55:54;;;;;;;6.90;1.77;;;22.60;47.40;;;;;;5026920;28;20017;-48
2021/05/21 09:58:24;;;;;;;3.13;1.83;;;22.50;47.40;;;;;;5027438;28;20021;-49
2021/05/21 10:01:19;;;;;;;4.63;1.40;;;23.40;49.20;;;;;;5026627;28;20030;-48
2021/05/21 10:03:50;;;;;;;4.03;1.20;;;24.60;42.60;;;;;;5027876;28;20037;-48
2021/05/21 10:06:17;;;;;;;4.25;1.60;;;25.10;44.30;;;;;;5028139;28;20253;-50
2021/05/21 10:08:45;;;;;;;4.90;1.25;;;26.70;40.50;;;;;;5028251;28;20064;-48
2021/05/21 10:11:12;;;;;;;6.43;1.52;;;23.50;43.60;;;;;;5036383;28;20099;-50
2021/05/21 10:13:39;;;;;;;3.53;1.35;;;23.80;46.30;;;;;;5037598;28;20393;-48
2021/05/21 10:16:04;;;;;;;5.05;1.63;;;24.40;43.40;;;;;;5038753;28;20130;-50
2021/05/21 10:18:34;;;;;;;6.13;2.22;;;24.80;42.60;;;;;;5039351;28;20100;-47
2021/05/21 10:21:00;;;;;;;5.70;2.28;;;25.30;43.80;;;;;;5046672;28;20160;-48
2021/05/21 10:23:37;;;;;;;2.83;1.23;;;25.10;42.80;;;;;;5050767;28;20116;-49
2021/05/21 10:26:09;;;;;;;4.43;1.67;;;26.00;42.50;;;;;;5050295;28;20050;-49
2021/05/21 10:28:37;;;;;;;2.72;1.00;;;26.80;42.00;;;;;;5050933;28;20083;-49
2021/05/21 10:31:03;;;;;;;3.25;1.52;;;27.60;39.90;;;;;;5042626;28;20128;-47
2021/05/21 10:33:35;;;;;;;3.85;1.27;;;26.40;41.10;;;;;;5045367;28;20032;-48
2021/05/21 10:36:28;;;;;;;2.95;1.23;;;24.30;44.00;;;;;;5047010;28;20177;-47
2021/05/21 10:39:06;;;;;;;5.20;1.33;;;26.30;41.60;;;;;;5037440;28;20029;-46
2021/05/21 10:41:48;;;;;;;3.83;1.30;;;25.70;41.30;;;;;;5038617;28;20029;-46
2021/05/21 10:44:22;;;;;;;5.88;1.38;;;24.20;44.10;;;;;;5040466;28;20017;-49
2021/05/21 10:46:50;;;;;;;2.22;1.13;;;25.80;42.60;;;;;;5037242;28;20025;-48
2021/05/21 10:49:25;;;;;;;6.80;1.35;;;26.30;40.20;;;;;;5038338;28;20524;-48
2021/05/21 10:51:54;;;;;;;5.50;1.48;;;25.60;41.00;;;;;;5038617;28;20022;-47
2021/05/21 10:54:40;;;;;;;1.73;1.00;;;27.10;40.10;;;;;;5042044;28;20021;-48
2021/05/21 10:57:26;;;;;;;3.60;1.20;;;27.80;40.80;;;;;;5038655;28;20017;-47
2021/05/21 10:59:51;;;;;;;4.28;1.52;;;27.50;39.90;;;;;;5037914;28;20104;-49
2021/05/21 11:02:18;;;;;;;4.65;1.20;;;27.00;40.50;;;;;;5041034;28;20181;-47
2021/05/21 11:04:44;;;;;;;5.40;1.02;;;25.20;45.40;;;;;;5037918;28;20018;-50
2021/05/21 11:07:10;;;;;;;1.80;1.20;;;26.80;43.80;;;;;;5040871;28;20033;-51
2021/05/21 11:09:44;;;;;;;2.53;1.05;;;28.10;38.50;;;;;;5036248;28;20041;-49
2021/05/21 11:12:14;;;;;;;4.22;1.08;;;26.80;39.10;;;;;;5039539;28;20463;-48
2021/05/21 11:14:45;;;;;;;6.45;1.23;;;25.80;42.40;;;;;;5038865;28;20022;-47
2021/05/21 11:17:21;;;;;;;4.20;1.60;;;26.10;41.70;;;;;;5040957;28;20017;-47
2021/05/21 11:19:53;;;;;;;4.55;1.30;;;25.00;41.70;;;;;;5038099;28;20021;-49
2021/05/21 11:22:32;;;;;;;1.90;1.00;;;24.80;42.30;;;;;;5040909;28;20057;-48
2021/05/21 11:25:00;;;;;;;2.75;1.17;;;25.00;43.40;;;;;;5040426;28;20029;-47
2021/05/21 11:27:28;;;;;;;3.75;1.23;;;24.30;43.40;;;;;;5034868;28;20025;-47
2021/05/21 11:29:54;;;;;;;5.90;0.95;;;23.60;45.20;;;;;;5031388;28;20080;-48
2021/05/21 11:32:22;;;;;;;5.80;1.38;;;23.30;44.50;;;;;;5032531;28;20487;-48
2021/05/21 11:34:49;;;;;;;1.58;1.00;;;22.30;45.50;;;;;;5041890;28;20025;-49
2021/05/21 11:37:26;;;;;;;2.08;1.05;;;21.80;45.00;;;;;;5038299;28;20017;-48
2021/05/21 11:39:53;;;;;;;2.53;1.10;;;23.20;47.10;;;;;;5041506;28;20028;-47
2021/05/21 11:42:20;;;;;;;5.85;0.98;;;24.50;43.20;;;;;;5036049;28;20071;-47
2021/05/21 11:44:56;;;;;;;3.50;1.00;;;24.20;41.90;;;;;;5039691;28;20038;-47
2021/05/21 11:47:27;;;;;;;3.72;1.50;;;23.30;43.40;;;;;;5034348;28;20430;-47
2021/05/21 11:49:54;;;;;;;3.65;1.08;;;22.80;44.10;;;;;;5029386;28;20095;-48
2021/05/21 11:52:20;;;;;;;2.47;0.80;;;22.30;45.40;;;;;;5038094;28;20033;-47
2021/05/21 11:54:47;;;;;;;5.93;1.73;;;22.70;46.10;;;;;;5049142;28;20021;-47
2021/05/21 11:57:16;;;;;;;1.02;0.70;;;22.30;44.90;;;;;;5048216;28;20594;-47
2021/05/21 11:59:42;;;;;;;1.93;0.90;;;22.20;45.20;;;;;;5048789;28;20025;-49
2021/05/21 12:02:08;;;;;;;3.92;1.05;;;21.40;45.50;;;;;;5049862;28;20031;-47
2021/05/21 12:04:36;;;;;;;4.30;1.00;;;21.00;47.00;;;;;;5049542;28;20540;-49
2021/05/21 12:07:02;;;;;;;3.20;1.30;;;20.10;47.40;;;;;;5049671;28;20029;-47
2021/05/21 12:09:28;;;;;;;3.58;1.23;;;20.30;50.00;;;;;;5048913;28;20371;-47
2021/05/21 12:11:56;;;;;;;4.20;1.35;;;19.90;49.80;;;;;;5041175;28;20379;-47
2021/05/21 12:14:24;;;;;;;4.78;1.45;;;19.90;50.70;;;;;;5048008;28;20040;-47
2021/05/21 12:16:53;;;;;;;3.42;1.23;;;19.80;51.60;;;;;;5049110;28;20017;-47
2021/05/21 12:19:19;;;;;;;2.92;1.48;;;19.70;51.70;;;;;;5047820;28;20134;-47
2021/05/21 12:21:47;;;;;;;4.97;1.10;;;19.70;51.60;;;;;;5048749;28;20474;-47
2021/05/21 12:24:16;;;;;;;6.45;1.55;;;19.70;52.60;;;;;;5048483;28;20021;-49
2021/05/21 12:26:43;;;;;;;3.75;1.13;;;19.70;52.00;;;;;;5049034;28;20083;-49
2021/05/21 12:29:11;;;;;;;2.83;1.35;;;19.90;52.00;;;;;;5039706;28;20029;-52
2021/05/21 12:31:48;;;;;;;3.03;0.88;;;20.40;51.10;;;;;;5037081;28;20478;-52
2021/05/21 12:34:16;;;;;;;3.17;1.25;;;20.80;51.20;;;;;;5047422;28;20021;-52
2021/05/21 12:36:42;;;;;;;3.42;1.30;;;20.90;49.60;;;;;;5036941;28;20032;-52
2021/05/21 12:39:09;;;;;;;3.67;1.17;;;20.40;51.60;;;;;;5037492;28;20024;-52
2021/05/21 12:41:37;;;;;;;4.93;1.48;;;20.10;50.80;;;;;;5039219;28;20033;-52
2021/05/21 12:44:11;;;;;;;3.40;1.48;;;20.10;51.50;;;;;;5039849;28;20501;-52
2021/05/21 12:46:45;;;;;;;0.65;0.65;;;20.30;52.70;;;;;;5036082;28;20067;-52
2021/05/21 12:49:12;;;;;;;4.43;1.27;;;20.70;51.20;;;;;;5037873;28;20026;-52